Time;durP1;ratioP1;P1;durP2;ratioP2;P2;SDS_P1;SDS_P2;PMS_P1;PMS_P2;Temp;Humidity;BMP_temperature;BMP_pressure;BME280_temperature;BME280_humidity;BME280_pressure;Samples;Min_cycle;Max_cycle;Signal;HPM_P1;HPM_P2
2022/09/17 00:00:46;;;;;;;12.93;2.83;;;;;;;8.62;100.00;101165.84;6060200;23;20029;-86
2022/09/17 00:03:12;;;;;;;9.00;2.78;;;;;;;8.66;100.00;101172.75;6061135;23;20007;-86
2022/09/17 00:05:37;;;;;;;12.18;3.13;;;;;;;8.66;100.00;101178.91;6061260;23;20011;-85
2022/09/17 00:08:04;;;;;;;13.13;2.85;;;;;;;8.69;100.00;101178.81;6062243;23;20037;-85
2022/09/17 00:10:31;;;;;;;9.68;2.42;;;;;;;8.70;100.00;101184.97;6060605;23;20073;-85
2022/09/17 00:12:56;;;;;;;9.43;3.08;;;;;;;8.69;100.00;101189.44;6061685;23;20552;-85
2022/09/17 00:15:22;;;;;;;13.27;3.28;;;;;;;8.67;100.00;101180.66;6061983;23;20054;-85
2022/09/17 00:17:53;;;;;;;11.02;2.85;;;;;;;8.66;100.00;101181.56;6038777;23;20465;-84
2022/09/17 00:20:18;;;;;;;12.95;3.38;;;;;;;8.68;100.00;101186.81;6037418;23;20003;-85
2022/09/17 00:22:43;;;;;;;11.25;2.97;;;;;;;8.70;100.00;101193.81;6037716;23;20057;-86
2022/09/17 00:25:09;;;;;;;11.68;2.90;;;;;;;8.66;100.00;101192.19;6062469;23;20007;-86
2022/09/17 00:27:34;;;;;;;9.02;2.60;;;;;;;8.75;100.00;101204.25;6063072;23;20417;-85
2022/09/17 00:29:59;;;;;;;12.10;2.92;;;;;;;8.74;100.00;101199.88;6063096;23;20512;-86
2022/09/17 00:32:26;;;;;;;11.90;3.20;;;;;;;8.79;100.00;101207.66;6061181;23;20007;-86
2022/09/17 00:34:51;;;;;;;13.27;3.13;;;;;;;8.81;100.00;101206.66;6035110;23;20010;-86
2022/09/17 00:37:18;;;;;;;12.02;2.83;;;;;;;8.78;100.00;101195.28;6061488;23;20014;-86
2022/09/17 00:39:43;;;;;;;13.57;2.90;;;;;;;8.83;100.00;101196.00;6059482;23;20029;-86
2022/09/17 00:42:11;;;;;;;9.88;2.65;;;;;;;8.84;100.00;101192.41;6060966;23;20081;-85
2022/09/17 00:44:41;;;;;;;14.00;3.38;;;;;;;8.84;100.00;101203.88;6059236;23;20476;-84
2022/09/17 00:47:15;;;;;;;9.13;2.42;;;;;;;8.76;100.00;101195.34;6061124;23;20101;-85
2022/09/17 00:49:41;;;;;;;8.30;2.47;;;;;;;8.81;100.00;101203.13;6060986;23;19998;-85
2022/09/17 00:52:29;;;;;;;18.50;3.55;;;;;;;8.78;100.00;101209.44;6061597;23;20013;-85
2022/09/17 00:55:21;;;;;;;14.32;3.13;;;;;;;8.78;100.00;101209.44;6060068;23;20061;-85
2022/09/17 00:57:49;;;;;;;10.38;3.13;;;;;;;8.76;100.00;101199.81;6058129;23;20014;-86
2022/09/17 01:00:15;;;;;;;8.02;3.05;;;;;;;8.74;100.00;101202.53;6062481;23;20013;-85
2022/09/17 01:02:41;;;;;;;11.02;2.40;;;;;;;8.77;100.00;101201.53;6035547;23;20093;-85
2022/09/17 01:05:07;;;;;;;12.60;2.97;;;;;;;8.78;100.00;101206.78;6060633;23;20007;-85
2022/09/17 01:07:47;;;;;;;14.40;2.80;;;;;;;8.80;100.00;101218.19;6058413;23;20333;-85
2022/09/17 01:10:22;;;;;;;12.95;2.97;;;;;;;8.79;100.00;101213.81;6060131;23;20146;-85
2022/09/17 01:13:08;;;;;;;10.43;3.10;;;;;;;8.78;100.00;101203.25;6033732;23;20018;-85
2022/09/17 01:16:11;;;;;;;11.15;2.60;;;;;;;8.77;100.00;101199.72;6059804;23;20011;-85
2022/09/17 01:19:12;;;;;;;11.80;2.80;;;;;;;8.77;100.00;101210.34;5944221;24;20095;-85
2022/09/17 01:21:47;;;;;;;8.13;2.13;;;;;;;8.78;100.00;101216.50;5943296;24;20020;-85
2022/09/17 01:24:36;;;;;;;11.40;2.60;;;;;;;8.76;100.00;101221.91;5945229;24;20008;-85
2022/09/17 01:27:17;;;;;;;12.40;2.65;;;;;;;8.75;100.00;101216.66;5947065;24;20016;-85
2022/09/17 01:30:27;;;;;;;10.43;2.58;;;;;;;8.73;100.00;101214.03;5946786;24;20072;-85
2022/09/17 01:33:20;;;;;;;11.65;2.60;;;;;;;8.76;100.00;101211.28;5896627;24;20390;-85
2022/09/17 01:36:05;;;;;;;11.70;2.80;;;;;;;8.81;100.00;101214.63;5924644;24;20013;-85
2022/09/17 01:38:38;;;;;;;15.13;3.42;;;;;;;8.84;100.00;101233.09;5943445;24;20024;-84
2022/09/17 01:41:09;;;;;;;12.68;3.08;;;;;;;8.87;100.00;101230.34;5962604;24;20012;-85
2022/09/17 01:43:47;;;;;;;13.70;2.75;;;;;;;8.87;100.00;101226.81;5970459;24;20048;-84
2022/09/17 01:46:20;;;;;;;11.10;3.03;;;;;;;8.89;100.00;101232.91;5960078;24;20008;-85
2022/09/17 01:48:50;;;;;;;11.45;2.33;;;;;;;8.86;100.00;101233.91;5963189;24;20404;-85
2022/09/17 01:51:21;;;;;;;11.52;2.20;;;;;;;8.88;100.00;101231.19;5953157;24;20092;-85
2022/09/17 01:54:00;;;;;;;12.30;2.90;;;;;;;8.89;100.00;101232.91;6028936;23;20399;-85
2022/09/17 01:56:32;;;;;;;10.40;2.13;;;;;;;8.84;100.00;101230.44;6031683;23;20007;-85
2022/09/17 01:59:15;;;;;;;13.75;2.90;;;;;;;8.82;100.00;101237.59;6031711;23;20078;-85
2022/09/17 02:01:42;;;;;;;10.90;2.72;;;;;;;8.79;100.00;101221.78;6031498;23;20061;-85
2022/09/17 02:04:18;;;;;;;10.63;2.88;;;;;;;8.81;100.00;101230.53;6029322;23;20015;-85
2022/09/17 02:06:49;;;;;;;9.57;2.25;;;;;;;8.79;100.00;101235.06;6030412;23;20031;-86
2022/09/17 02:09:25;;;;;;;13.38;2.88;;;;;;;8.73;100.00;101240.56;6033655;23;20004;-86
2022/09/17 02:11:57;;;;;;;10.77;2.55;;;;;;;8.66;100.00;101239.09;6032731;23;20007;-85
2022/09/17 02:14:40;;;;;;;13.02;2.22;;;;;;;8.56;100.00;101238.53;6032712;23;20035;-85
2022/09/17 02:17:28;;;;;;;9.02;2.33;;;;;;;8.53;100.00;101235.13;6033214;23;20078;-85
2022/09/17 02:19:54;;;;;;;12.48;3.13;;;;;;;8.55;100.00;101230.66;6031082;23;20008;-85
2022/09/17 02:22:26;;;;;;;14.10;2.97;;;;;;;8.55;100.00;101241.25;6031906;23;20015;-85
2022/09/17 02:25:07;;;;;;;13.65;2.22;;;;;;;8.55;100.00;101243.91;6031897;23;20059;-86
2022/09/17 02:27:55;;;;;;;11.93;2.50;;;;;;;8.62;100.00;101240.13;6033245;23;20035;-86
2022/09/17 02:30:20;;;;;;;9.40;2.28;;;;;;;8.66;100.00;101239.94;6032850;23;20039;-85
2022/09/17 02:32:46;;;;;;;10.18;2.42;;;;;;;8.68;100.00;101239.88;6030773;23;20379;-85
2022/09/17 02:35:14;;;;;;;10.68;2.80;;;;;;;8.73;100.00;101237.91;6031389;23;20018;-85
2022/09/17 02:37:43;;;;;;;12.18;3.00;;;;;;;8.76;100.00;101237.81;6010146;23;20283;-85
2022/09/17 02:40:11;;;;;;;9.07;2.30;;;;;;;8.77;100.00;101244.84;6062384;23;20042;-86
2022/09/17 02:43:02;;;;;;;11.00;2.58;;;;;;;8.74;100.00;101250.28;6060979;23;20061;-86
2022/09/17 02:45:37;;;;;;;8.25;3.35;;;;;;;8.69;100.00;101252.22;6062449;23;20007;-86
2022/09/17 02:48:13;;;;;;;8.85;2.30;;;;;;;8.63;100.00;101250.66;6062479;23;20090;-86
2022/09/17 02:51:00;;;;;;;10.85;2.33;;;;;;;8.57;100.00;101257.97;6060395;23;20038;-85
2022/09/17 02:53:33;;;;;;;9.25;2.35;;;;;;;8.58;100.00;101262.38;6060337;23;20006;-86
2022/09/17 02:56:29;;;;;;;12.13;2.38;;;;;;;8.59;100.00;101256.16;6036246;23;20019;-85
2022/09/17 02:58:58;;;;;;;12.10;2.58;;;;;;;8.64;100.00;101259.50;6061655;23;20011;-85
2022/09/17 03:01:32;;;;;;;11.70;2.15;;;;;;;8.60;100.00;101249.91;6061459;23;20425;-86
2022/09/17 03:04:00;;;;;;;13.30;2.40;;;;;;;8.65;100.00;101248.84;6060418;23;20350;-86
2022/09/17 03:06:26;;;;;;;9.85;2.50;;;;;;;8.67;100.00;101251.44;6060981;23;20059;-86
2022/09/17 03:08:51;;;;;;;9.30;2.65;;;;;;;8.66;100.00;101260.31;6062071;23;20010;-86
2022/09/17 03:11:17;;;;;;;13.05;2.58;;;;;;;8.61;100.00;101251.63;6061739;23;20045;-85
2022/09/17 03:13:42;;;;;;;13.35;2.85;;;;;;;8.53;100.00;101257.25;6061942;23;20014;-86
2022/09/17 03:16:07;;;;;;;10.85;2.63;;;;;;;8.50;100.00;101267.97;6037506;23;20078;-86
2022/09/17 03:18:33;;;;;;;12.13;3.00;;;;;;;8.47;100.00;101257.44;6062075;23;20007;-85
2022/09/17 03:20:58;;;;;;;10.32;2.80;;;;;;;8.43;100.00;101250.50;6035665;23;20093;-86
2022/09/17 03:23:24;;;;;;;13.50;2.55;;;;;;;8.46;100.00;101256.59;6060792;23;20013;-86
2022/09/17 03:25:49;;;;;;;10.57;2.30;;;;;;;8.41;100.00;101247.94;6062161;23;20031;-86
2022/09/17 03:28:15;;;;;;;10.10;2.35;;;;;;;8.39;100.00;101241.78;6063022;23;20003;-85
2022/09/17 03:30:43;;;;;;;11.02;2.33;;;;;;;8.38;100.00;101239.22;6062465;23;20206;-86
2022/09/17 03:33:08;;;;;;;14.77;2.83;;;;;;;8.30;100.00;101241.22;6060879;23;20002;-86
2022/09/17 03:35:34;;;;;;;8.43;2.28;;;;;;;8.29;100.00;101240.38;6061388;23;20014;-86
2022/09/17 03:37:59;;;;;;;9.70;2.63;;;;;;;8.25;100.00;101246.69;6061369;23;20015;-85
2022/09/17 03:40:24;;;;;;;10.77;2.65;;;;;;;8.24;100.00;101240.53;6061127;23;20007;-86
2022/09/17 03:42:50;;;;;;;9.57;2.38;;;;;;;8.23;100.00;101236.16;6060832;23;20470;-86
2022/09/17 03:45:15;;;;;;;12.60;2.65;;;;;;;8.24;100.00;101248.50;6035846;23;20003;-85
2022/09/17 03:47:40;;;;;;;13.80;2.63;;;;;;;8.23;100.00;101256.47;6060765;23;20042;-85
2022/09/17 03:50:06;;;;;;;12.48;2.50;;;;;;;8.21;100.00;101260.97;6061772;23;20003;-86
2022/09/17 03:52:31;;;;;;;9.35;2.70;;;;;;;8.21;100.00;101258.31;6060924;23;20017;-86
2022/09/17 03:54:56;;;;;;;9.82;2.20;;;;;;;8.21;100.00;101266.28;6062188;23;20042;-85
2022/09/17 03:57:22;;;;;;;11.15;2.80;;;;;;;8.15;100.00;101253.22;6065020;23;20089;-85
2022/09/17 03:59:48;;;;;;;12.60;2.70;;;;;;;8.15;100.00;101261.19;6063416;23;20007;-85
2022/09/17 04:02:13;;;;;;;11.90;2.50;;;;;;;8.12;100.00;101261.31;6062577;23;20655;-85
2022/09/17 04:04:38;;;;;;;11.02;2.75;;;;;;;8.11;100.00;101257.78;6062227;23;20034;-85
2022/09/17 04:07:04;;;;;;;14.48;2.90;;;;;;;8.05;100.00;101251.81;6062833;23;20008;-85
2022/09/17 04:09:29;;;;;;;13.00;2.42;;;;;;;8.06;100.00;101258.84;6062682;23;20018;-85
2022/09/17 04:11:55;;;;;;;12.15;2.80;;;;;;;8.02;100.00;101265.16;6061827;23;20021;-86
2022/09/17 04:14:20;;;;;;;13.40;3.03;;;;;;;8.01;100.00;101258.13;6036387;23;20344;-86
2022/09/17 04:16:45;;;;;;;13.88;2.72;;;;;;;7.98;100.00;101262.63;6035699;23;20440;-86
2022/09/17 04:19:11;;;;;;;11.98;2.83;;;;;;;7.97;100.00;101268.84;6062057;23;20010;-86
2022/09/17 04:21:36;;;;;;;16.25;3.38;;;;;;;7.97;100.00;101268.84;6065694;23;20047;-85
2022/09/17 04:24:01;;;;;;;12.13;3.78;;;;;;;7.98;100.00;101262.63;6068006;23;20006;-85
2022/09/17 04:26:26;;;;;;;15.15;2.70;;;;;;;8.00;100.00;101267.88;6067812;23;20003;-86
2022/09/17 04:28:52;;;;;;;17.45;3.20;;;;;;;8.01;100.00;101269.59;6068348;23;20010;-85
2022/09/17 04:31:17;;;;;;;9.30;2.58;;;;;;;7.96;100.00;101275.06;6071517;23;20014;-85
2022/09/17 04:33:42;;;;;;;11.68;2.28;;;;;;;7.98;100.00;101275.91;6069608;23;20050;-85
2022/09/17 04:36:07;;;;;;;7.30;2.40;;;;;;;7.92;100.00;101268.13;6073724;23;19998;-86
2022/09/17 04:38:33;;;;;;;11.15;2.83;;;;;;;7.95;100.00;101276.00;6061452;23;20026;-85
2022/09/17 04:40:59;;;;;;;12.15;2.65;;;;;;;7.91;100.00;101263.75;6064412;23;20030;-85
2022/09/17 04:43:24;;;;;;;9.00;2.85;;;;;;;7.99;100.00;101268.81;6062172;23;20010;-86
2022/09/17 04:45:50;;;;;;;15.60;3.35;;;;;;;8.06;100.00;101272.09;6062498;23;20006;-85
2022/09/17 04:48:16;;;;;;;11.13;3.42;;;;;;;8.14;100.00;101270.06;6035910;23;20038;-86
2022/09/17 04:50:42;;;;;;;12.93;2.78;;;;;;;8.15;100.00;101277.97;6060809;23;20489;-86
2022/09/17 04:53:07;;;;;;;10.80;2.22;;;;;;;8.26;100.00;101276.72;6061806;23;20007;-86
2022/09/17 04:55:33;;;;;;;11.45;2.58;;;;;;;8.34;100.00;101285.28;6062099;23;20013;-86
2022/09/17 04:57:58;;;;;;;11.38;2.40;;;;;;;8.44;100.00;101282.31;6060459;23;20128;-85
2022/09/17 05:00:24;;;;;;;11.45;2.42;;;;;;;8.45;100.00;101275.22;6059943;23;20010;-86
2022/09/17 05:02:51;;;;;;;9.52;2.17;;;;;;;8.55;100.00;101286.38;6061866;23;20006;-85
2022/09/17 05:05:18;;;;;;;9.18;2.00;;;;;;;8.50;100.00;101265.31;6035612;23;20418;-85
2022/09/17 05:07:43;;;;;;;10.90;1.95;;;;;;;8.52;100.00;101274.06;6063064;23;20034;-86
2022/09/17 05:10:10;;;;;;;9.98;2.15;;;;;;;8.50;100.00;101278.56;6068486;23;20006;-85
2022/09/17 05:12:35;;;;;;;11.32;2.05;;;;;;;8.47;100.00;101274.22;6040582;23;20421;-85
2022/09/17 05:15:01;;;;;;;12.50;2.92;;;;;;;8.47;100.00;101287.50;6063333;23;20441;-85
2022/09/17 05:17:27;;;;;;;10.30;2.53;;;;;;;8.40;100.00;101287.75;6064633;23;20061;-85
2022/09/17 05:19:52;;;;;;;7.50;2.10;;;;;;;8.37;100.00;101291.41;6061086;23;20109;-86
2022/09/17 05:22:18;;;;;;;11.38;2.05;;;;;;;8.34;100.00;101296.75;6060921;23;20446;-86
2022/09/17 05:24:44;;;;;;;11.52;2.00;;;;;;;8.28;100.00;101282.84;6060967;23;20003;-86
2022/09/17 05:27:09;;;;;;;7.90;2.40;;;;;;;8.28;100.00;101297.00;6061062;23;20098;-86
2022/09/17 05:29:35;;;;;;;12.52;2.50;;;;;;;8.24;100.00;101298.00;6059692;23;20014;-86
2022/09/17 05:32:01;;;;;;;11.00;2.60;;;;;;;8.18;100.00;101303.50;6061796;23;20009;-85
2022/09/17 05:34:26;;;;;;;12.23;2.70;;;;;;;8.16;100.00;101308.00;6062754;23;20010;-86
2022/09/17 05:36:51;;;;;;;10.70;2.70;;;;;;;8.16;100.00;101310.66;6060056;23;20011;-86
2022/09/17 05:39:17;;;;;;;10.32;2.55;;;;;;;8.15;100.00;101314.19;6059982;23;20419;-86
2022/09/17 05:41:42;;;;;;;13.13;2.30;;;;;;;8.13;100.00;101311.63;6062359;23;20007;-86
2022/09/17 05:44:08;;;;;;;15.57;2.70;;;;;;;8.17;100.00;101310.59;6062142;23;20006;-86
2022/09/17 05:46:34;;;;;;;10.55;2.30;;;;;;;8.16;100.00;101303.56;6063691;23;20058;-86
2022/09/17 05:48:59;;;;;;;9.35;2.60;;;;;;;8.17;100.00;101300.00;6063919;23;20077;-86
2022/09/17 05:51:24;;;;;;;10.65;2.55;;;;;;;8.18;100.00;101298.19;6060166;23;20074;-85
2022/09/17 05:53:49;;;;;;;11.60;2.60;;;;;;;8.22;100.00;101299.84;6062539;23;20094;-85
2022/09/17 05:56:15;;;;;;;11.98;2.67;;;;;;;8.33;100.00;101307.44;6037594;23;20002;-86
2022/09/17 05:58:40;;;;;;;12.10;2.45;;;;;;;8.43;100.00;101312.38;6052558;23;20084;-85
2022/09/17 06:01:06;;;;;;;7.68;2.30;;;;;;;8.52;100.00;101310.34;6061051;23;20382;-86
2022/09/17 06:03:31;;;;;;;8.25;2.20;;;;;;;8.64;100.00;101317.88;6061400;23;20077;-86
2022/09/17 06:05:58;;;;;;;10.43;2.17;;;;;;;8.78;100.00;101331.53;6060679;23;20021;-86
2022/09/17 06:08:25;;;;;;;11.10;2.45;;;;;;;8.83;100.00;101321.63;6037883;23;20038;-86
2022/09/17 06:10:51;;;;;;;10.60;2.10;;;;;;;8.82;100.00;101338.47;6060432;23;20086;-85
2022/09/17 06:13:17;;;;;;;11.45;2.53;;;;;;;8.89;100.00;101336.44;6061572;23;20119;-86
2022/09/17 06:15:48;;;;;;;12.13;2.45;;;;;;;8.95;100.00;101352.16;6063147;23;20006;-85
2022/09/17 06:18:14;;;;;;;10.27;3.00;;;;;;;9.09;100.00;101356.97;6061734;23;20014;-85
2022/09/17 06:20:39;;;;;;;9.35;2.50;;;;;;;9.15;100.00;101360.25;6038846;23;20062;-85
2022/09/17 06:23:04;;;;;;;14.07;3.15;;;;;;;9.10;100.00;101354.25;6040707;23;20007;-86
2022/09/17 06:25:30;;;;;;;14.38;2.95;;;;;;;8.98;100.00;101357.34;6039407;23;20097;-87
2022/09/17 06:27:56;;;;;;;8.73;2.50;;;;;;;8.92;100.00;101355.78;6044707;23;20007;-86
2022/09/17 06:30:21;;;;;;;16.30;4.63;;;;;;;8.85;100.00;101338.34;6039834;23;20007;-87
2022/09/17 06:32:46;;;;;;;12.82;3.15;;;;;;;8.86;100.00;101347.16;6062548;23;20048;-85
2022/09/17 06:35:11;;;;;;;17.00;3.90;;;;;;;8.79;100.00;101338.56;6063065;23;20010;-85
2022/09/17 06:37:39;;;;;;;8.27;2.50;;;;;;;8.79;100.00;101340.38;6060767;23;20007;-85
2022/09/17 06:40:05;;;;;;;10.13;2.58;;;;;;;8.78;100.00;101351.88;6064215;23;20015;-85
2022/09/17 06:42:30;;;;;;;13.30;4.32;;;;;;;8.75;100.00;101344.91;6061769;23;20006;-86
2022/09/17 06:44:57;;;;;;;9.88;3.00;;;;;;;8.79;100.00;101346.53;6062680;23;20010;-86
2022/09/17 06:47:23;;;;;;;10.70;2.63;;;;;;;8.78;100.00;101350.13;6061979;23;20062;-86
2022/09/17 06:49:48;;;;;;;9.65;2.38;;;;;;;8.77;100.00;101340.41;6063028;23;20003;-86
2022/09/17 06:52:14;;;;;;;12.50;4.80;;;;;;;8.80;100.00;101340.28;6063378;23;20011;-86
2022/09/17 06:54:39;;;;;;;17.67;6.95;;;;;;;8.90;100.00;101347.03;6063843;23;20026;-86
2022/09/17 06:57:04;;;;;;;15.48;4.20;;;;;;;8.95;100.00;101344.19;6066118;23;20007;-86
2022/09/17 06:59:30;;;;;;;8.10;2.90;;;;;;;9.03;100.00;101330.63;6069418;23;20011;-86
2022/09/17 07:01:55;;;;;;;9.80;3.10;;;;;;;9.17;100.00;101334.53;6062993;23;20322;-88
2022/09/17 07:04:20;;;;;;;6.97;2.15;;;;;;;9.50;100.00;101341.28;6040244;23;20017;-87
2022/09/17 07:06:46;;;;;;;7.90;2.58;;;;;;;9.82;100.00;101338.22;6065392;23;19999;-86
2022/09/17 07:09:11;;;;;;;9.68;2.40;;;;;;;10.16;100.00;101335.06;6069505;23;20006;-86
2022/09/17 07:11:40;;;;;;;8.95;3.22;;;;;;;10.32;96.90;101342.44;6069485;23;20011;-87
2022/09/17 07:14:05;;;;;;;7.53;2.30;;;;;;;10.18;96.46;101341.19;6068107;23;20114;-86
2022/09/17 07:16:33;;;;;;;8.30;2.13;;;;;;;10.43;96.60;101341.06;6050117;23;20022;-86
2022/09/17 07:18:59;;;;;;;5.57;1.90;;;;;;;11.00;94.33;101345.72;6081355;23;20425;-85
2022/09/17 07:21:24;;;;;;;8.27;2.30;;;;;;;11.58;91.93;101340.38;6082450;23;20074;-86
2022/09/17 07:23:50;;;;;;;6.70;1.92;;;;;;;12.06;89.64;101339.00;6055664;23;20018;-86
2022/09/17 07:26:15;;;;;;;7.80;2.60;;;;;;;12.53;86.43;101341.94;6061341;23;20093;-85
2022/09/17 07:28:42;;;;;;;12.25;2.45;;;;;;;12.83;82.94;101341.28;6063460;23;20006;-86
2022/09/17 07:31:09;;;;;;;7.75;2.20;;;;;;;13.02;81.33;101347.41;6064017;23;20342;-85
2022/09/17 07:33:36;;;;;;;7.45;2.38;;;;;;;13.19;80.78;101341.16;6061726;23;20007;-85
2022/09/17 07:36:07;;;;;;;10.95;3.50;;;;;;;13.46;78.76;101341.53;6063013;23;20014;-85
2022/09/17 07:38:34;;;;;;;10.80;4.38;;;;;;;13.88;77.72;101346.28;6061841;23;20023;-86
2022/09/17 07:41:25;;;;;;;6.78;1.70;;;;;;;14.32;79.75;101344.66;6060209;23;20086;-85
2022/09/17 07:43:52;;;;;;;7.07;1.65;;;;;;;14.63;73.95;101346.41;6053286;23;20006;-85
2022/09/17 07:46:19;;;;;;;4.53;1.67;;;;;;;14.83;73.34;101343.38;6062225;23;20026;-85
2022/09/17 07:48:46;;;;;;;5.88;1.52;;;;;;;15.18;72.07;101340.38;6061113;23;20070;-84
2022/09/17 07:51:21;;;;;;;9.75;1.85;;;;;;;15.48;71.43;101334.91;6035260;23;20345;-84
2022/09/17 07:53:47;;;;;;;7.68;1.70;;;;;;;15.77;67.95;101335.75;6033896;23;20007;-84
2022/09/17 07:56:12;;;;;;;5.72;1.55;;;;;;;16.00;67.99;101344.97;6061949;23;20007;-83
2022/09/17 07:58:38;;;;;;;10.40;1.60;;;;;;;16.05;64.90;101348.25;6059304;23;20080;-83
2022/09/17 08:01:07;;;;;;;5.22;1.65;;;;;;;16.14;65.72;101341.41;6060532;23;20007;-83
2022/09/17 08:03:32;;;;;;;4.63;1.50;;;;;;;15.96;65.66;101345.28;6060671;23;20002;-84
2022/09/17 08:06:09;;;;;;;5.65;2.03;;;;;;;15.67;67.06;101338.19;6061930;23;20011;-85
2022/09/17 08:08:35;;;;;;;7.05;1.73;;;;;;;15.49;65.51;101341.13;6060254;23;20448;-84
2022/09/17 08:11:03;;;;;;;2.88;1.10;;;;;;;15.55;64.61;101336.25;6060890;23;20090;-83
2022/09/17 08:13:28;;;;;;;3.97;1.10;;;;;;;16.07;64.31;101348.13;6062239;23;20003;-85
2022/09/17 08:15:58;;;;;;;3.00;1.10;;;;;;;16.67;63.31;101356.56;6062510;23;20421;-85
2022/09/17 08:18:23;;;;;;;3.67;1.35;;;;;;;17.38;61.75;101351.69;6062425;23;20003;-84
2022/09/17 08:20:48;;;;;;;7.50;2.78;;;;;;;18.13;60.81;101357.88;6061653;23;20018;-86
2022/09/17 08:23:14;;;;;;;4.15;1.13;;;;;;;19.01;55.88;101346.69;6061616;23;20007;-84
2022/09/17 08:25:39;;;;;;;4.45;1.00;;;;;;;19.70;54.21;101352.03;6061679;23;20014;-85
2022/09/17 08:28:04;;;;;;;4.20;1.00;;;;;;;19.59;52.87;101350.16;6062532;23;20013;-85
2022/09/17 08:30:31;;;;;;;2.58;0.90;;;;;;;19.50;53.00;101358.13;6059907;23;20006;-85
2022/09/17 08:32:56;;;;;;;4.47;1.30;;;;;;;19.61;52.51;101353.63;6060630;23;20831;-85
2022/09/17 08:35:23;;;;;;;5.10;0.90;;;;;;;19.84;51.61;101354.44;6061110;23;20034;-85
2022/09/17 08:37:48;;;;;;;4.47;1.10;;;;;;;20.00;49.91;101359.47;6060772;23;20003;-84
2022/09/17 08:40:21;;;;;;;3.22;0.90;;;;;;;20.21;50.41;101355.97;6061338;23;20002;-84
2022/09/17 08:43:00;;;;;;;5.60;1.43;;;;;;;20.80;52.21;101361.75;6060158;23;20014;-84
2022/09/17 08:45:26;;;;;;;5.30;1.67;;;;;;;21.26;46.82;101365.03;6059518;23;20016;-84
2022/09/17 08:47:58;;;;;;;3.47;1.25;;;;;;;21.77;45.94;101364.13;6061090;23;20010;-85
2022/09/17 08:50:31;;;;;;;4.88;1.20;;;;;;;21.82;45.68;101356.41;6061237;23;20430;-84
2022/09/17 08:53:13;;;;;;;5.85;2.20;;;;;;;22.02;47.88;101363.59;6061101;23;20054;-85
2022/09/17 08:55:55;;;;;;;6.03;1.58;;;;;;;22.70;47.09;101366.41;6061653;23;20009;-84
2022/09/17 08:58:41;;;;;;;4.65;1.40;;;;;;;23.01;46.01;101366.25;6060911;23;20022;-84
2022/09/17 09:01:21;;;;;;;5.70;1.27;;;;;;;23.35;42.76;101359.28;6059031;23;20038;-83
2022/09/17 09:04:19;;;;;;;3.85;1.13;;;;;;;23.96;43.67;101363.31;6060990;23;20018;-84
2022/09/17 09:06:59;;;;;;;3.00;0.93;;;;;;;24.35;40.86;101360.31;6029948;23;20014;-85
2022/09/17 09:09:30;;;;;;;4.28;1.17;;;;;;;24.55;39.01;101361.06;6058395;23;19998;-86
2022/09/17 09:12:06;;;;;;;3.30;1.38;;;;;;;25.02;38.53;101358.88;6057850;23;20010;-84
2022/09/17 09:14:51;;;;;;;3.42;0.90;;;;;;;24.25;41.02;101368.56;6060278;23;20018;-84
2022/09/17 09:17:20;;;;;;;6.95;1.17;;;;;;;22.60;41.00;101362.84;6060464;23;20066;-83
2022/09/17 09:19:45;;;;;;;4.28;1.38;;;;;;;21.61;42.22;101370.94;6060445;23;20010;-84
2022/09/17 09:22:13;;;;;;;4.55;1.00;;;;;;;19.84;48.09;101381.47;6060112;23;20035;-83
2022/09/17 09:24:50;;;;;;;3.92;1.00;;;;;;;17.78;54.30;101382.03;6061136;23;20141;-84
2022/09/17 09:27:22;;;;;;;6.07;1.33;;;;;;;16.21;58.87;101388.34;6061669;23;20086;-83
2022/09/17 09:30:09;;;;;;;5.93;1.30;;;;;;;15.28;63.95;101387.13;6061457;23;20007;-84
2022/09/17 09:32:56;;;;;;;5.05;1.23;;;;;;;16.11;62.02;101372.00;6061049;23;20430;-85
2022/09/17 09:35:27;;;;;;;3.47;0.90;;;;;;;18.62;56.87;101378.44;6035772;23;20493;-85
2022/09/17 09:38:08;;;;;;;4.32;1.00;;;;;;;20.78;50.63;101376.41;6035571;23;20504;-85
2022/09/17 09:40:43;;;;;;;3.60;1.13;;;;;;;22.25;45.14;101380.53;6060902;23;20007;-84
2022/09/17 09:43:38;;;;;;;4.93;1.20;;;;;;;23.55;44.92;101372.78;6062344;23;20011;-84
2022/09/17 09:46:13;;;;;;;3.90;1.05;;;;;;;24.76;41.73;101377.06;6047723;23;20368;-83
2022/09/17 09:49:15;;;;;;;3.97;0.90;;;;;;;25.49;40.29;101376.72;6063038;23;20033;-84
2022/09/17 09:51:43;;;;;;;3.00;1.00;;;;;;;25.18;38.98;101377.22;6061974;23;20093;-84
2022/09/17 09:54:36;;;;;;;2.95;0.82;;;;;;;24.37;38.44;101366.47;6070509;23;20011;-83
2022/09/17 09:57:18;;;;;;;5.82;1.00;;;;;;;24.23;40.38;101369.72;6065038;23;20006;-84
2022/09/17 09:59:43;;;;;;;4.05;1.02;;;;;;;23.25;42.65;101369.34;6063194;23;20264;-83
2022/09/17 10:02:09;;;;;;;3.15;0.93;;;;;;;22.82;40.78;101367.09;6039634;23;20417;-84
2022/09/17 10:04:34;;;;;;;4.80;0.70;;;;;;;21.50;42.35;101367.44;6063520;23;20078;-84
2022/09/17 10:07:08;;;;;;;3.78;0.90;;;;;;;20.03;44.53;101359.22;6064427;23;20472;-84
2022/09/17 10:09:35;;;;;;;3.42;1.10;;;;;;;18.60;48.47;101380.41;6063975;23;20026;-83
2022/09/17 10:12:07;;;;;;;5.97;1.15;;;;;;;17.26;53.21;101387.53;6063918;23;20011;-83
2022/09/17 10:14:34;;;;;;;5.50;0.85;;;;;;;16.48;55.50;101382.13;6064199;23;20014;-83
2022/09/17 10:17:19;;;;;;;3.47;0.90;;;;;;;16.85;54.58;101380.53;6065423;23;20054;-83
2022/09/17 10:19:47;;;;;;;5.18;1.17;;;;;;;18.14;53.68;101385.66;6061893;23;20014;-84
2022/09/17 10:22:39;;;;;;;5.20;0.85;;;;;;;20.75;48.17;101373.97;6062641;23;20007;-84
2022/09/17 10:25:19;;;;;;;2.33;0.90;;;;;;;22.61;43.29;101372.69;6048056;23;20037;-84
2022/09/17 10:27:47;;;;;;;3.83;0.90;;;;;;;24.78;37.77;101364.13;6062975;23;20030;-84
2022/09/17 10:30:17;;;;;;;4.43;0.90;;;;;;;26.23;34.05;101365.09;6061602;23;20003;-84
2022/09/17 10:32:42;;;;;;;4.68;1.00;;;;;;;27.06;32.11;101375.03;6060004;23;20006;-84
2022/09/17 10:35:14;;;;;;;4.68;1.05;;;;;;;27.33;31.87;101367.50;6061640;23;20080;-85
2022/09/17 10:37:48;;;;;;;2.28;0.57;;;;;;;27.89;31.65;101371.94;6063590;23;20085;-82
2022/09/17 10:40:17;;;;;;;6.25;0.90;;;;;;;27.20;29.73;101365.31;6036610;23;20007;-83
2022/09/17 10:42:42;;;;;;;2.03;0.70;;;;;;;27.37;30.33;101355.19;6061354;23;20070;-84
2022/09/17 10:45:26;;;;;;;2.72;0.80;;;;;;;28.07;31.07;101351.66;6062364;23;20302;-83
2022/09/17 10:47:52;;;;;;;2.33;0.88;;;;;;;26.26;29.65;101362.03;6062174;23;20011;-83
2022/09/17 10:50:28;;;;;;;2.78;1.23;;;;;;;23.92;33.73;101363.78;6060959;23;20437;-84
2022/09/17 10:52:58;;;;;;;3.53;0.80;;;;;;;22.19;38.01;101367.50;6061934;23;20050;-83
2022/09/17 10:55:24;;;;;;;2.55;0.55;;;;;;;20.67;40.54;101379.16;6062336;23;20013;-84
2022/09/17 10:57:53;;;;;;;2.58;0.63;;;;;;;18.98;46.26;101394.63;6061992;23;20026;-84
2022/09/17 11:00:22;;;;;;;4.55;0.82;;;;;;;17.46;53.92;101391.50;6059972;23;20082;-84
2022/09/17 11:02:49;;;;;;;4.75;0.93;;;;;;;16.28;59.62;101386.13;6062712;23;20010;-84
2022/09/17 11:05:38;;;;;;;4.70;1.05;;;;;;;15.44;59.99;101374.47;6063103;23;20006;-83
2022/09/17 11:08:25;;;;;;;3.50;1.00;;;;;;;15.48;66.47;101374.28;6062920;23;20067;-83
2022/09/17 11:11:08;;;;;;;4.43;1.08;;;;;;;16.32;62.25;101363.47;6061850;23;20010;-83
2022/09/17 11:13:57;;;;;;;2.92;1.02;;;;;;;18.24;57.46;101364.31;6062339;23;20433;-84
2022/09/17 11:16:37;;;;;;;4.32;1.40;;;;;;;21.73;48.00;101351.84;6062498;23;20011;-82
2022/09/17 11:19:12;;;;;;;3.17;1.00;;;;;;;22.01;44.46;101350.19;6063719;23;20382;-83
2022/09/17 11:21:44;;;;;;;2.63;0.85;;;;;;;21.73;44.81;101349.13;6062521;23;20098;-83
2022/09/17 11:24:32;;;;;;;2.05;0.57;;;;;;;21.67;46.72;101347.84;6062412;23;20086;-84
2022/09/17 11:27:21;;;;;;;1.58;0.50;;;;;;;21.27;44.74;101343.22;6062507;23;20010;-84
2022/09/17 11:29:49;;;;;;;2.70;0.50;;;;;;;21.05;43.63;101360.47;6061136;23;20078;-84
2022/09/17 11:32:17;;;;;;;3.10;0.70;;;;;;;21.44;44.15;101358.00;6061502;23;20363;-84
2022/09/17 11:34:53;;;;;;;2.47;0.60;;;;;;;23.22;39.28;101352.47;6063412;23;20030;-84
2022/09/17 11:37:24;;;;;;;2.38;0.50;;;;;;;24.90;36.62;101348.41;6062406;23;20010;-84